createdAt,value
2023-04-11T00:01:53.921Z,5.90
2023-04-11T00:04:21.209Z,5.80
2023-04-11T00:06:48.875Z,5.70
2023-04-11T00:09:16.882Z,5.70
2023-04-11T00:11:44.359Z,5.60
2023-04-11T00:14:12.783Z,5.70
2023-04-11T00:16:41.571Z,5.80
2023-04-11T00:19:09.612Z,5.80
2023-04-11T00:21:40.232Z,5.70
2023-04-11T00:24:10.082Z,5.60
2023-04-11T00:29:05.074Z,5.50
2023-04-11T00:31:32.702Z,5.60
2023-04-11T00:34:00.055Z,5.70
2023-04-11T00:36:27.595Z,5.50
2023-04-11T00:38:58.605Z,5.40
2023-04-11T00:41:26.163Z,5.40
2023-04-11T00:43:54.317Z,5.40
2023-04-11T00:46:22.047Z,5.30
2023-04-11T00:48:49.334Z,5.30
2023-04-11T00:51:16.985Z,5.30
2023-04-11T00:53:45.784Z,5.40
2023-04-11T00:56:13.230Z,5.60
2023-04-11T00:58:41.450Z,5.70
2023-04-11T01:01:11.755Z,5.70
2023-04-11T01:03:39.987Z,5.70
2023-04-11T01:06:10.273Z,5.50
2023-04-11T01:08:40.163Z,5.30
2023-04-11T01:11:09.292Z,5.20
2023-04-11T01:13:39.285Z,5.10
2023-04-11T01:16:07.520Z,5.00
2023-04-11T01:18:34.570Z,5.00
2023-04-11T01:21:02.377Z,5.10
2023-04-11T01:23:29.603Z,5.10
2023-04-11T01:25:56.896Z,5.20
2023-04-11T01:28:23.966Z,5.40
2023-04-11T01:30:51.294Z,5.60
2023-04-11T01:33:18.374Z,5.50
2023-04-11T01:35:46.063Z,5.30
2023-04-11T01:38:13.081Z,5.10
2023-04-11T01:40:41.124Z,5.00
2023-04-11T01:43:09.930Z,4.90
2023-04-11T01:45:37.614Z,4.80
2023-04-11T01:48:07.480Z,4.80
2023-04-11T01:50:34.890Z,4.70
2023-04-11T01:53:02.219Z,4.70
2023-04-11T01:55:29.530Z,4.70
2023-04-11T01:57:56.528Z,4.90
2023-04-11T02:00:24.173Z,5.00
2023-04-11T02:02:51.302Z,5.10
2023-04-11T02:05:18.894Z,5.30
2023-04-11T02:07:45.951Z,5.30
2023-04-11T02:10:13.202Z,5.40
2023-04-11T02:12:40.220Z,5.60
2023-04-11T02:15:08.091Z,5.70
2023-04-11T02:17:36.840Z,5.80
2023-04-11T02:20:07.098Z,5.80
2023-04-11T02:22:34.166Z,5.80
2023-04-11T02:25:01.501Z,5.80
2023-04-11T02:27:28.504Z,5.80
2023-04-11T02:29:55.705Z,5.70
2023-04-11T02:32:22.857Z,5.60
2023-04-11T02:34:50.646Z,5.50
2023-04-11T02:37:17.649Z,5.40
2023-04-11T02:39:45.043Z,5.40
2023-04-11T02:42:14.984Z,5.20
2023-04-11T02:44:42.172Z,5.10
2023-04-11T02:47:09.450Z,5.10
2023-04-11T02:49:36.880Z,5.00
2023-04-11T02:52:05.245Z,5.10
2023-04-11T02:54:32.436Z,5.10
2023-04-11T02:57:00.841Z,4.80
2023-04-11T02:59:28.349Z,4.90
2023-04-11T03:01:59.391Z,5.00
2023-04-11T03:04:28.104Z,5.00
2023-04-11T03:06:55.328Z,5.10
2023-04-11T03:09:23.663Z,5.10
2023-04-11T03:11:50.613Z,5.30
2023-04-11T03:14:17.984Z,5.30
2023-04-11T03:16:44.926Z,5.30
2023-04-11T03:19:12.181Z,5.20
2023-04-11T03:21:39.176Z,5.40
2023-04-11T03:24:06.942Z,5.40
2023-04-11T03:26:33.929Z,5.50
2023-04-11T03:29:01.134Z,5.50
2023-04-11T03:31:28.969Z,5.50
2023-04-11T03:33:56.620Z,5.60
2023-04-11T03:36:23.581Z,5.50
2023-04-11T03:38:51.220Z,5.50
2023-04-11T03:41:19.511Z,5.40
2023-04-11T03:43:46.801Z,5.30
2023-04-11T03:46:13.816Z,5.20
2023-04-11T03:48:41.188Z,5.40
2023-04-11T03:51:08.418Z,5.20
2023-04-11T03:53:35.973Z,5.10
2023-04-11T03:56:04.260Z,5.10
2023-04-11T03:58:31.765Z,5.10
2023-04-11T04:00:58.748Z,5.10
2023-04-11T04:03:26.225Z,5.10
2023-04-11T04:05:53.390Z,5.20
2023-04-11T04:08:20.690Z,5.30
2023-04-11T04:10:47.723Z,5.30
2023-04-11T04:13:15.095Z,5.40
2023-04-11T04:15:42.655Z,5.40
2023-04-11T04:18:09.931Z,5.50
2023-04-11T04:20:36.889Z,5.60
2023-04-11T04:23:04.767Z,5.50
2023-04-11T04:25:31.890Z,5.60
2023-04-11T04:28:01.018Z,5.60
2023-04-11T04:30:28.960Z,5.70
2023-04-11T04:32:58.956Z,5.80
2023-04-11T04:35:26.912Z,5.90
2023-04-11T04:37:54.723Z,6.00
2023-04-11T04:40:22.757Z,6.00
2023-04-11T04:42:58.277Z,6.10
2023-04-11T04:45:26.420Z,6.20
2023-04-11T04:47:53.952Z,6.20
2023-04-11T04:50:21.323Z,6.30
2023-04-11T04:52:48.725Z,6.50
2023-04-11T04:55:15.800Z,6.50
2023-04-11T04:57:43.033Z,6.60
2023-04-11T05:00:11.714Z,6.80
2023-04-11T05:02:40.650Z,6.90
2023-04-11T05:05:08.246Z,7.10
2023-04-11T05:07:36.444Z,7.20
2023-04-11T05:10:03.569Z,7.30
2023-04-11T05:12:31.136Z,7.50
2023-04-11T05:14:58.225Z,7.60
2023-04-11T05:17:26.284Z,7.70
2023-04-11T05:19:53.388Z,7.90
2023-04-11T05:22:20.856Z,8.00
2023-04-11T05:24:48.317Z,8.20
2023-04-11T05:27:15.548Z,8.30
2023-04-11T05:29:42.558Z,8.50
2023-04-11T05:32:09.897Z,8.60
2023-04-11T05:34:56.674Z,8.70
2023-04-11T05:37:26.526Z,8.70
2023-04-11T05:39:53.569Z,8.90
2023-04-11T05:42:20.859Z,8.90
2023-04-11T05:44:47.942Z,8.90
2023-04-11T05:47:15.864Z,9.00
2023-04-11T05:49:43.297Z,9.10
2023-04-11T05:52:10.641Z,9.40
2023-04-11T05:54:37.741Z,9.70
2023-04-11T05:57:07.001Z,10.10
2023-04-11T05:59:34.810Z,10.50
2023-04-11T06:02:02.991Z,10.90
2023-04-11T06:04:30.107Z,11.30
2023-04-11T06:06:57.695Z,11.60
2023-04-11T06:09:24.828Z,11.80
2023-04-11T06:11:52.290Z,12.10
2023-04-11T06:14:19.365Z,12.10
2023-04-11T06:16:46.741Z,12.60
2023-04-11T06:19:13.787Z,12.60
2023-04-11T06:21:41.306Z,13.60
2023-04-11T06:24:11.336Z,13.60
2023-04-11T06:26:38.932Z,14.20
2023-04-11T06:29:07.955Z,14.20
2023-04-11T06:31:35.419Z,14.50
2023-04-11T06:34:02.838Z,14.60
2023-04-11T06:36:30.510Z,15.00
2023-04-11T06:38:57.498Z,15.40
2023-04-11T06:41:25.502Z,15.60
2023-04-11T06:43:52.465Z,15.90
2023-04-11T06:46:20.838Z,16.20
2023-04-11T06:48:47.875Z,16.30
2023-04-11T06:51:15.064Z,16.50
2023-04-11T06:53:42.125Z,16.60
2023-04-11T06:56:10.516Z,16.90
2023-04-11T06:58:37.541Z,16.80
2023-04-11T07:01:04.967Z,16.90
2023-04-11T07:03:32.601Z,16.90
2023-04-11T07:05:59.966Z,16.90
2023-04-11T07:08:26.958Z,16.80
2023-04-11T07:10:54.177Z,17.30
2023-04-11T07:13:21.530Z,18.20
2023-04-11T07:15:49.135Z,18.00
2023-04-11T07:18:16.294Z,16.80
2023-04-11T07:20:43.933Z,16.20
2023-04-11T07:23:11.015Z,15.60
2023-04-11T07:25:39.323Z,15.20
2023-04-11T07:28:07.370Z,15.00
2023-04-11T07:30:36.223Z,15.00
2023-04-11T07:33:03.882Z,15.40
2023-04-11T07:35:33.460Z,16.30
2023-04-11T07:38:01.476Z,16.80
2023-04-11T07:40:29.550Z,16.90
2023-04-11T07:42:56.915Z,16.70
2023-04-11T07:45:24.459Z,16.20
2023-04-11T07:47:51.600Z,15.40
2023-04-11T07:50:19.228Z,14.90
2023-04-11T07:52:46.530Z,14.60
2023-04-11T07:55:13.787Z,14.70
2023-04-11T07:57:40.771Z,14.80
2023-04-11T08:00:11.528Z,15.00
2023-04-11T08:02:39.094Z,15.20
2023-04-11T08:05:10.009Z,15.70
2023-04-11T08:07:37.116Z,16.10
2023-04-11T08:10:05.520Z,16.30
2023-04-11T08:12:32.783Z,16.80
2023-04-11T08:15:00.818Z,17.20
2023-04-11T08:17:29.304Z,17.90
2023-04-11T08:19:57.792Z,18.30
2023-04-11T08:22:24.869Z,18.50
2023-04-11T08:24:52.504Z,19.00
2023-04-11T08:27:19.460Z,19.10
2023-04-11T08:29:48.323Z,19.30
2023-04-11T08:32:15.503Z,19.20
2023-04-11T08:34:44.035Z,19.50
2023-04-11T08:37:11.855Z,19.50
2023-04-11T08:39:39.298Z,20.20
2023-04-11T08:42:06.627Z,20.50
2023-04-11T08:44:34.228Z,20.40
2023-04-11T08:47:01.457Z,20.00
2023-04-11T08:49:28.857Z,19.10
2023-04-11T08:51:56.221Z,17.80
2023-04-11T08:54:23.471Z,17.70
2023-04-11T08:56:50.619Z,17.60
2023-04-11T08:59:17.975Z,17.60
2023-04-11T09:01:45.176Z,18.10
2023-04-11T09:04:12.751Z,18.20
2023-04-11T09:06:40.309Z,19.30
2023-04-11T09:09:08.817Z,19.30
2023-04-11T09:11:55.114Z,19.60
2023-04-11T09:14:26.970Z,19.80
2023-04-11T09:16:55.713Z,19.80
2023-04-11T09:19:25.336Z,19.80
2023-04-11T09:21:54.030Z,19.20
2023-04-11T09:24:22.364Z,19.10
2023-04-11T09:26:50.030Z,18.30
2023-04-11T09:29:41.276Z,18.30
2023-04-11T09:32:26.634Z,18.30
2023-04-11T09:35:18.616Z,18.00
2023-04-11T09:37:57.275Z,18.10
2023-04-11T09:40:27.063Z,18.40
2023-04-11T09:43:03.559Z,18.90
2023-04-11T09:45:38.146Z,19.00
2023-04-11T09:48:13.295Z,19.00
2023-04-11T09:50:41.684Z,19.30
2023-04-11T09:53:10.789Z,19.70
2023-04-11T09:55:39.658Z,19.40
2023-04-11T09:58:11.259Z,19.00
2023-04-11T10:00:41.267Z,18.30
2023-04-11T10:03:08.343Z,17.80
2023-04-11T10:05:37.349Z,17.60
2023-04-11T10:08:22.676Z,17.50
2023-04-11T10:10:52.939Z,17.40
2023-04-11T10:13:35.855Z,17.40
2023-04-11T10:16:16.998Z,17.40
2023-04-11T10:18:56.277Z,17.40
2023-04-11T10:21:30.097Z,17.70
2023-04-11T10:24:17.100Z,17.80
2023-04-11T10:26:53.107Z,17.80
2023-04-11T10:29:41.048Z,17.80
2023-04-11T10:32:12.254Z,17.90
2023-04-11T10:34:42.086Z,17.80
2023-04-11T10:37:10.875Z,17.60
2023-04-11T10:40:00.735Z,17.50
2023-04-11T10:42:32.342Z,17.50
2023-04-11T10:45:27.680Z,17.60
2023-04-11T10:48:03.388Z,17.40
2023-04-11T10:50:30.609Z,17.30
2023-04-11T10:53:00.137Z,17.40
2023-04-11T10:55:29.509Z,17.30
2023-04-11T10:58:08.257Z,17.30
2023-04-11T11:01:07.592Z,17.50
2023-04-11T11:03:36.349Z,17.50
2023-04-11T11:06:09.805Z,17.30
2023-04-11T11:08:41.880Z,17.20
2023-04-11T11:11:11.269Z,17.20
2023-04-11T11:13:42.972Z,17.20
2023-04-11T11:16:15.007Z,17.20
2023-04-11T11:18:46.596Z,17.20
2023-04-11T11:21:20.587Z,17.40
2023-04-11T11:24:02.109Z,17.50
2023-04-11T11:26:36.956Z,17.60
2023-04-11T11:29:05.851Z,17.60
2023-04-11T11:31:39.339Z,17.70
2023-04-11T11:34:21.942Z,17.70
2023-04-11T11:36:49.820Z,17.40
2023-04-11T11:39:17.896Z,17.40
2023-04-11T11:41:45.759Z,17.40
2023-04-11T11:44:28.259Z,17.40
2023-04-11T11:47:02.507Z,17.30
2023-04-11T11:49:54.465Z,17.40
2023-04-11T11:52:41.573Z,17.40
2023-04-11T11:55:30.064Z,17.50
2023-04-11T11:58:02.092Z,17.50
2023-04-11T12:00:32.301Z,17.50
2023-04-11T12:03:00.709Z,17.50
2023-04-11T12:05:33.354Z,17.50
2023-04-11T12:08:06.432Z,17.40
2023-04-11T12:10:48.439Z,17.40
2023-04-11T12:13:23.794Z,17.20
2023-04-11T12:16:04.195Z,17.10
2023-04-11T12:18:31.558Z,17.00
2023-04-11T12:20:59.881Z,16.90
2023-04-11T12:23:26.883Z,17.10
2023-04-11T12:25:54.390Z,17.10
2023-04-11T12:28:21.528Z,17.10
2023-04-11T12:30:49.343Z,17.20
2023-04-11T12:33:19.442Z,17.40
2023-04-11T12:35:47.039Z,17.30
2023-04-11T12:38:17.394Z,17.10
2023-04-11T12:40:46.851Z,16.90
2023-04-11T12:43:13.967Z,16.80
2023-04-11T12:45:41.815Z,16.90
2023-04-11T12:48:09.368Z,17.00
2023-04-11T12:50:37.951Z,17.10
2023-04-11T12:53:04.940Z,17.30
2023-04-11T12:55:36.164Z,17.30
2023-04-11T12:58:03.462Z,17.10
2023-04-11T13:00:30.778Z,17.00
2023-04-11T13:02:58.856Z,17.00
2023-04-11T13:05:27.285Z,17.10
2023-04-11T13:07:54.527Z,17.40
2023-04-11T13:10:22.259Z,17.40
2023-04-11T13:12:51.282Z,17.50
2023-04-11T13:15:19.015Z,17.70
2023-04-11T13:17:46.133Z,17.90
2023-04-11T13:20:13.812Z,18.10
2023-04-11T13:22:41.967Z,18.10
2023-04-11T13:25:12.214Z,17.90
2023-04-11T13:27:40.148Z,17.70
2023-04-11T13:30:09.934Z,17.40
2023-04-11T13:32:37.595Z,17.10
2023-04-11T13:35:06.266Z,16.90
2023-04-11T13:40:00.870Z,16.50
2023-04-11T13:42:27.895Z,16.40
2023-04-11T13:44:55.363Z,16.50
2023-04-11T13:47:22.389Z,16.50
2023-04-11T13:49:49.732Z,16.50
2023-04-11T13:52:16.847Z,16.60
2023-04-11T13:54:44.550Z,16.60
2023-04-11T13:57:11.554Z,16.70
2023-04-11T13:59:39.252Z,16.70
2023-04-11T14:02:06.254Z,16.70
2023-04-11T14:04:33.740Z,16.60
2023-04-11T14:07:00.972Z,16.50
2023-04-11T14:09:28.551Z,16.30
2023-04-11T14:11:56.886Z,15.90
2023-04-11T14:14:24.347Z,15.90
2023-04-11T14:16:51.539Z,15.80
2023-04-11T14:19:19.262Z,15.70
2023-04-11T14:21:46.598Z,13.40
2023-04-11T14:24:14.424Z,15.80
2023-04-11T14:26:41.754Z,15.90
2023-04-11T14:29:09.246Z,15.80
2023-04-11T14:31:36.881Z,15.80
2023-04-11T14:34:04.504Z,15.80
2023-04-11T14:36:32.095Z,15.70
2023-04-11T14:38:59.695Z,15.60
2023-04-11T14:41:26.750Z,15.50
2023-04-11T14:43:54.066Z,15.40
2023-04-11T14:46:21.367Z,15.40
2023-04-11T14:48:48.885Z,15.40
2023-04-11T14:51:16.138Z,15.30
2023-04-11T14:53:43.482Z,15.20
2023-04-11T14:56:10.642Z,15.10
2023-04-11T14:58:38.279Z,15.00
2023-04-11T15:01:05.501Z,14.80
2023-04-11T15:03:33.003Z,14.60
2023-04-11T15:06:00.178Z,14.10
2023-04-11T15:08:27.751Z,13.50
2023-04-11T15:10:54.968Z,12.80
2023-04-11T15:13:23.058Z,12.10
2023-04-11T15:15:50.265Z,11.40
2023-04-11T15:18:26.935Z,10.80
2023-04-11T15:20:55.584Z,10.50
2023-04-11T15:23:23.661Z,10.20
2023-04-11T15:25:58.958Z,10.00
2023-04-11T15:28:30.378Z,9.90
2023-04-11T15:30:57.871Z,9.90
2023-04-11T15:33:25.625Z,9.80
2023-04-11T15:35:54.006Z,9.80
2023-04-11T15:38:22.865Z,9.70
2023-04-11T15:40:51.483Z,9.70
2023-04-11T15:43:19.422Z,9.70
2023-04-11T15:45:46.751Z,9.80
2023-04-11T15:48:14.285Z,9.80
2023-04-11T15:50:43.011Z,9.80
2023-04-11T15:53:11.132Z,9.80
2023-04-11T15:55:40.074Z,9.90
2023-04-11T15:58:08.122Z,9.90
2023-04-11T16:00:36.569Z,9.90
2023-04-11T16:03:05.907Z,9.80
2023-04-11T16:05:33.318Z,9.80
2023-04-11T16:08:01.617Z,9.90
2023-04-11T16:10:30.070Z,10.00
2023-04-11T16:12:57.668Z,10.10
2023-04-11T16:15:25.112Z,10.10
2023-04-11T16:17:52.853Z,10.20
2023-04-11T16:20:21.595Z,10.20
2023-04-11T16:22:49.087Z,10.20
2023-04-11T16:25:19.462Z,10.30
2023-04-11T16:27:48.129Z,10.20
2023-04-11T16:30:15.174Z,10.00
2023-04-11T16:32:43.454Z,9.80
2023-04-11T16:35:10.928Z,9.60
2023-04-11T16:37:38.626Z,9.50
2023-04-11T16:40:11.374Z,9.40
2023-04-11T16:42:40.026Z,9.30
2023-04-11T16:45:09.615Z,9.30
2023-04-11T16:47:37.805Z,9.40
2023-04-11T16:50:05.977Z,9.30
2023-04-11T16:52:33.889Z,9.20
2023-04-11T16:55:01.661Z,9.10
2023-04-11T16:57:29.313Z,9.00
2023-04-11T16:59:56.581Z,9.00
2023-04-11T17:02:24.423Z,8.90
2023-04-11T17:04:51.596Z,8.90
2023-04-11T17:07:19.304Z,8.90
2023-04-11T17:09:50.036Z,8.90
2023-04-11T17:12:17.838Z,8.90
2023-04-11T17:14:45.726Z,8.90
2023-04-11T17:17:13.431Z,8.90
2023-04-11T17:19:41.488Z,8.80
2023-04-11T17:22:09.656Z,8.80
2023-04-11T17:24:37.172Z,8.80
2023-04-11T17:27:04.983Z,8.80
2023-04-11T17:29:32.497Z,8.80
2023-04-11T17:31:59.910Z,8.80
2023-04-11T17:34:26.933Z,8.80
2023-04-11T17:36:54.701Z,8.80
2023-04-11T17:39:21.900Z,8.80
2023-04-11T17:41:49.240Z,8.80
2023-04-11T17:44:16.249Z,8.80
2023-04-11T17:46:44.165Z,8.80
2023-04-11T17:49:11.380Z,8.80
2023-04-11T17:51:48.622Z,8.70
2023-04-11T17:54:16.469Z,8.70
2023-04-11T17:56:44.229Z,8.70
2023-04-11T17:59:11.794Z,8.70
2023-04-11T18:01:40.112Z,8.60
2023-04-11T18:04:09.587Z,8.60
2023-04-11T18:06:37.154Z,8.60
2023-04-11T18:09:04.283Z,8.60
2023-04-11T18:11:32.575Z,8.60
2023-04-11T18:14:00.037Z,8.50
2023-04-11T18:16:28.030Z,8.50
2023-04-11T18:18:55.026Z,8.50
2023-04-11T18:21:22.602Z,8.50
2023-04-11T18:23:49.735Z,8.40
2023-04-11T18:26:17.227Z,8.40
2023-04-11T18:28:44.188Z,8.40
2023-04-11T18:31:12.234Z,8.30
2023-04-11T18:33:42.334Z,8.30
2023-04-11T18:36:11.996Z,8.20
2023-04-11T18:38:39.348Z,8.10
2023-04-11T18:41:07.806Z,8.10
2023-04-11T18:43:35.747Z,8.10
2023-04-11T18:46:03.187Z,8.00
2023-04-11T18:48:31.797Z,8.00
2023-04-11T18:51:03.553Z,7.90
2023-04-11T18:53:31.025Z,7.80
2023-04-11T18:55:58.309Z,7.80
2023-04-11T18:58:26.793Z,7.80
2023-04-11T19:00:55.735Z,7.70
2023-04-11T19:03:24.195Z,7.70
2023-04-11T19:05:51.912Z,7.60
2023-04-11T19:08:18.999Z,7.60
2023-04-11T19:10:46.923Z,7.50
2023-04-11T19:13:14.000Z,7.50
2023-04-11T19:15:42.148Z,7.40
2023-04-11T19:18:10.366Z,7.40
2023-04-11T19:20:39.344Z,7.40
2023-04-11T19:23:06.533Z,7.30
2023-04-11T19:25:34.723Z,7.20
2023-04-11T19:28:01.679Z,7.20
2023-04-11T19:30:29.231Z,7.10
2023-04-11T19:32:57.292Z,7.10
2023-04-11T19:35:25.328Z,7.00
2023-04-11T19:37:52.998Z,6.90
2023-04-11T19:40:23.305Z,6.90
2023-04-11T19:42:51.503Z,6.90
2023-04-11T19:45:18.981Z,7.00
2023-04-11T19:47:46.381Z,6.90
2023-04-11T19:50:13.912Z,6.90
2023-04-11T19:52:42.395Z,6.90
2023-04-11T19:55:12.212Z,6.90
2023-04-11T19:57:40.154Z,6.80
2023-04-11T20:00:16.972Z,6.80
2023-04-11T20:02:46.359Z,6.80
2023-04-11T20:05:16.457Z,6.80
2023-04-11T20:07:44.069Z,6.80
2023-04-11T20:10:12.553Z,6.70
2023-04-11T20:12:39.739Z,6.90
2023-04-11T20:15:08.255Z,6.70
2023-04-11T20:17:36.182Z,6.70
2023-04-11T20:20:06.461Z,6.70
2023-04-11T20:22:33.620Z,6.70
2023-04-11T20:25:00.983Z,6.70
2023-04-11T20:27:28.339Z,6.80
2023-04-11T20:29:56.790Z,6.70
2023-04-11T20:32:24.012Z,6.70
2023-04-11T20:34:51.425Z,6.70
2023-04-11T20:37:19.703Z,6.60
2023-04-11T20:39:47.546Z,6.70
2023-04-11T20:42:15.289Z,6.60
2023-04-11T20:44:43.083Z,6.70
2023-04-11T20:47:10.020Z,6.60
2023-04-11T20:49:37.615Z,6.60
2023-04-11T20:52:04.886Z,6.60
2023-04-11T20:54:32.497Z,6.70
2023-04-11T20:56:59.563Z,6.70
2023-04-11T20:59:30.093Z,6.70
2023-04-11T21:01:57.155Z,6.80
2023-04-11T21:04:24.490Z,6.80
2023-04-11T21:06:51.599Z,6.80
2023-04-11T21:09:18.880Z,6.70
2023-04-11T21:11:46.108Z,6.70
2023-04-11T21:14:13.409Z,6.70
2023-04-11T21:16:40.390Z,6.70
2023-04-11T21:19:07.655Z,6.70
2023-04-11T21:21:34.580Z,6.70
2023-04-11T21:24:03.416Z,6.70
2023-04-11T21:26:31.416Z,6.70
2023-04-11T21:28:58.653Z,6.70
2023-04-11T21:31:25.762Z,6.70
2023-04-11T21:33:53.076Z,6.70
2023-04-11T21:36:20.281Z,6.60
2023-04-11T21:38:47.903Z,6.60
2023-04-11T21:41:14.895Z,6.60
2023-04-11T21:43:42.654Z,6.60
2023-04-11T21:46:09.679Z,6.70
2023-04-11T21:48:37.065Z,6.60
2023-04-11T21:51:04.345Z,6.60
2023-04-11T21:53:31.691Z,6.60
2023-04-11T21:55:58.657Z,6.60
2023-04-11T21:58:29.851Z,6.70
2023-04-11T22:00:57.103Z,6.70
2023-04-11T22:03:24.847Z,6.60
2023-04-11T22:05:52.563Z,6.70
2023-04-11T22:08:22.348Z,6.60
2023-04-11T22:10:50.705Z,6.70
2023-04-11T22:13:20.078Z,6.80
2023-04-11T22:15:48.890Z,6.70
2023-04-11T22:18:16.216Z,6.70
2023-04-11T22:20:44.232Z,6.70
2023-04-11T22:23:17.831Z,6.60
2023-04-11T22:25:44.785Z,6.60
2023-04-11T22:28:20.585Z,6.60
2023-04-11T22:30:47.611Z,6.60
2023-04-11T22:33:15.382Z,6.60
2023-04-11T22:35:48.062Z,6.60
2023-04-11T22:38:16.053Z,6.60
2023-04-11T22:40:43.178Z,6.60
2023-04-11T22:43:10.736Z,6.60
2023-04-11T22:45:38.022Z,6.60
2023-04-11T22:48:06.358Z,6.60
2023-04-11T22:50:37.333Z,6.60
2023-04-11T22:53:05.552Z,6.60
2023-04-11T22:55:34.426Z,6.60
2023-04-11T22:58:02.656Z,6.60
2023-04-11T23:00:30.067Z,6.60
2023-04-11T23:02:59.755Z,6.60
2023-04-11T23:05:27.076Z,6.60
2023-04-11T23:07:54.518Z,6.60
2023-04-11T23:10:21.448Z,6.60
2023-04-11T23:12:49.625Z,6.60
2023-04-11T23:15:17.516Z,6.60
2023-04-11T23:17:44.928Z,6.60
2023-04-11T23:20:12.904Z,6.60
2023-04-11T23:22:42.168Z,6.70
2023-04-11T23:25:12.701Z,6.70
2023-04-11T23:27:40.385Z,6.70
2023-04-11T23:30:09.339Z,6.80
2023-04-11T23:32:36.936Z,6.70
2023-04-11T23:35:05.734Z,6.70
2023-04-11T23:37:33.283Z,6.70
2023-04-11T23:40:03.005Z,6.70
2023-04-11T23:42:30.762Z,6.70
2023-04-11T23:44:57.792Z,6.70
2023-04-11T23:47:25.113Z,6.60
2023-04-11T23:49:52.185Z,6.60
2023-04-11T23:52:20.833Z,6.60
2023-04-11T23:54:48.005Z,6.60
2023-04-11T23:57:15.807Z,6.60
2023-04-11T23:59:42.988Z,6.60
